createdAt,value
2022-08-17T00:00:00.066Z,91.16
2022-08-17T00:00:55.121Z,90.86
2022-08-17T00:01:52.581Z,91.76
2022-08-17T00:02:45.202Z,91.76
2022-08-17T00:03:40.204Z,92.88
2022-08-17T00:04:35.333Z,92.16
2022-08-17T00:05:30.426Z,91.96
2022-08-17T00:06:25.468Z,92.16
2022-08-17T00:07:23.704Z,91.86
2022-08-17T00:08:18.790Z,92.06
2022-08-17T00:09:18.994Z,92.26
2022-08-17T00:10:09.972Z,92.06
2022-08-17T00:11:04.040Z,92.47
2022-08-17T00:12:40.723Z,92.16
2022-08-17T00:12:55.525Z,92.16
2022-08-17T00:13:49.262Z,92.57
2022-08-17T00:14:44.343Z,92.68
2022-08-17T00:15:39.619Z,92.06
2022-08-17T00:16:55.620Z,91.76
2022-08-17T00:17:31.059Z,91.26
2022-08-17T00:18:53.949Z,91.36
2022-08-17T00:19:22.553Z,90.86
2022-08-17T00:20:17.417Z,90.76
2022-08-17T00:21:12.663Z,91.06
2022-08-17T00:22:32.591Z,89.69
2022-08-17T00:23:03.698Z,90.07
2022-08-17T00:23:57.754Z,90.76
2022-08-17T00:24:55.318Z,91.76
2022-08-17T00:25:50.398Z,91.26
2022-08-17T00:26:45.601Z,91.56
2022-08-17T00:27:40.534Z,90.27
2022-08-17T00:28:35.659Z,91.06
2022-08-17T00:29:30.725Z,91.56
2022-08-17T00:30:25.835Z,92.47
2022-08-17T00:31:20.961Z,91.56
2022-08-17T00:33:15.279Z,92.68
2022-08-17T00:33:16.318Z,92.16
2022-08-17T00:34:06.119Z,92.06
2022-08-17T00:35:01.225Z,92.68
2022-08-17T00:35:56.236Z,92.26
2022-08-17T00:36:51.204Z,92.78
2022-08-17T00:37:46.313Z,93.40
2022-08-17T00:38:41.416Z,93.61
2022-08-17T00:39:36.640Z,93.51
2022-08-17T00:40:40.818Z,93.61
2022-08-17T00:41:29.666Z,92.68
2022-08-17T00:42:26.423Z,92.57
2022-08-17T00:43:20.013Z,92.78
2022-08-17T00:44:14.605Z,93.30
2022-08-17T00:45:09.831Z,92.47
2022-08-17T00:46:05.038Z,92.88
2022-08-17T00:47:00.152Z,93.19
2022-08-17T00:47:55.535Z,93.40
2022-08-17T00:48:50.613Z,94.35
2022-08-17T00:49:45.817Z,94.25
2022-08-17T00:50:41.092Z,94.25
2022-08-17T00:51:36.179Z,93.82
2022-08-17T00:52:31.401Z,94.03
2022-08-17T00:53:26.627Z,93.82
2022-08-17T00:54:21.811Z,95.00
2022-08-17T00:55:17.058Z,95.11
2022-08-17T00:56:12.272Z,94.17
2022-08-17T00:57:07.365Z,94.39
2022-08-17T00:58:02.509Z,94.65
2022-08-17T00:58:57.640Z,95.41
2022-08-17T01:00:03.228Z,96.46
2022-08-17T01:00:49.181Z,97.08
2022-08-17T01:01:45.261Z,94.55
2022-08-17T01:02:42.724Z,95.21
2022-08-17T01:03:35.584Z,94.57
2022-08-17T01:04:30.869Z,95.65
2022-08-17T01:05:26.097Z,95.87
2022-08-17T01:06:21.444Z,95.54
2022-08-17T01:07:16.497Z,94.60
2022-08-17T01:08:11.524Z,95.87
2022-08-17T01:09:06.617Z,94.60
2022-08-17T01:10:01.696Z,95.03
2022-08-17T01:10:58.125Z,96.02
2022-08-17T01:11:51.700Z,95.63
2022-08-17T01:12:46.805Z,96.24
2022-08-17T01:13:43.115Z,96.35
2022-08-17T01:14:38.191Z,98.10
2022-08-17T01:15:33.323Z,99.21
2022-08-17T01:16:28.319Z,100.29
2022-08-17T01:17:23.313Z,100.65
2022-08-17T01:18:18.337Z,100.04
2022-08-17T01:19:13.364Z,99.86
2022-08-17T01:20:08.411Z,99.04
2022-08-17T01:21:03.514Z,99.33
2022-08-17T01:21:58.589Z,98.86
2022-08-17T01:22:53.690Z,98.05
2022-08-17T01:23:48.753Z,97.53
2022-08-17T01:24:43.823Z,97.42
2022-08-17T01:25:38.955Z,98.10
2022-08-17T01:26:33.946Z,97.64
2022-08-17T01:27:29.048Z,97.42
2022-08-17T01:28:33.458Z,97.99
2022-08-17T01:29:22.168Z,97.87
2022-08-17T01:30:57.108Z,97.70
2022-08-17T01:31:12.267Z,96.91
2022-08-17T01:32:06.317Z,96.68
2022-08-17T01:33:01.444Z,97.53
2022-08-17T01:33:56.532Z,97.42
2022-08-17T01:34:51.760Z,97.64
2022-08-17T01:35:46.911Z,97.82
2022-08-17T01:36:41.900Z,97.47
2022-08-17T01:37:36.965Z,96.18
2022-08-17T01:38:32.053Z,96.74
2022-08-17T01:39:27.082Z,96.07
2022-08-17T01:40:22.612Z,96.63
2022-08-17T01:41:17.835Z,96.02
2022-08-17T01:42:13.086Z,96.68
2022-08-17T01:43:08.828Z,96.57
2022-08-17T01:44:04.088Z,96.74
2022-08-17T01:44:59.902Z,97.02
2022-08-17T01:46:03.771Z,96.29
2022-08-17T01:46:51.421Z,97.02
2022-08-17T01:47:46.121Z,97.13
2022-08-17T01:48:41.373Z,98.33
2022-08-17T01:49:36.497Z,98.16
2022-08-17T01:50:32.831Z,98.05
2022-08-17T01:51:28.122Z,98.39
2022-08-17T01:52:23.914Z,95.90
2022-08-17T01:53:19.147Z,96.02
2022-08-17T01:54:14.341Z,95.90
2022-08-17T01:55:10.159Z,96.18
2022-08-17T01:56:05.305Z,96.18
2022-08-17T01:57:01.184Z,96.57
2022-08-17T01:57:56.276Z,97.19
2022-08-17T01:58:51.549Z,97.82
2022-08-17T01:59:47.204Z,98.39
2022-08-17T02:00:59.539Z,98.92
2022-08-17T02:01:38.689Z,100.04
2022-08-17T02:02:32.717Z,99.45
2022-08-17T02:03:28.531Z,99.69
2022-08-17T02:04:23.699Z,100.29
2022-08-17T02:05:18.852Z,100.53
2022-08-17T02:06:27.721Z,100.95
2022-08-17T02:07:11.351Z,100.77
2022-08-17T02:08:06.146Z,100.22
2022-08-17T02:09:03.168Z,99.45
2022-08-17T02:09:56.865Z,99.45
2022-08-17T02:10:51.885Z,100.04
2022-08-17T02:11:46.978Z,100.22
2022-08-17T02:12:45.926Z,101.07
2022-08-17T02:13:41.222Z,101.38
2022-08-17T02:14:36.637Z,101.88
2022-08-17T02:15:32.400Z,103.46
2022-08-17T02:16:27.694Z,103.26
2022-08-17T02:17:23.745Z,103.58
2022-08-17T02:18:17.964Z,103.71
2022-08-17T02:19:13.962Z,103.26
2022-08-17T02:20:09.017Z,102.69
2022-08-17T02:21:04.433Z,103.07
2022-08-17T02:22:00.485Z,101.94
2022-08-17T02:22:55.653Z,101.57
2022-08-17T02:23:51.389Z,102.00
2022-08-17T02:24:58.778Z,101.94
2022-08-17T02:25:43.291Z,102.19
2022-08-17T02:26:37.566Z,101.88
2022-08-17T02:27:33.429Z,101.14
2022-08-17T02:28:28.580Z,92.57
2022-08-17T02:29:23.669Z,89.02
2022-08-17T02:30:59.148Z,89.59
2022-08-17T02:31:15.603Z,91.26
2022-08-17T02:32:10.552Z,90.96
2022-08-17T02:33:09.281Z,90.96
2022-08-17T02:34:04.104Z,92.47
2022-08-17T02:34:56.134Z,94.35
2022-08-17T02:35:51.941Z,95.21
2022-08-17T02:36:47.189Z,94.87
2022-08-17T02:37:42.392Z,96.07
2022-08-17T02:38:38.746Z,97.53
2022-08-17T02:39:34.009Z,98.16
2022-08-17T02:40:30.042Z,98.74
2022-08-17T02:41:25.954Z,99.69
2022-08-17T02:42:20.076Z,100.22
2022-08-17T02:43:16.587Z,100.95
2022-08-17T02:44:11.875Z,101.26
2022-08-17T02:45:07.737Z,100.83
2022-08-17T02:46:03.015Z,100.53
2022-08-17T02:46:58.509Z,100.65
2022-08-17T02:47:53.408Z,99.69
2022-08-17T02:48:48.709Z,99.09
2022-08-17T02:49:48.911Z,99.09
2022-08-17T02:50:39.691Z,97.42
2022-08-17T02:51:33.895Z,96.96
2022-08-17T02:52:43.079Z,96.79
2022-08-17T02:53:25.754Z,96.57
2022-08-17T02:54:40.499Z,95.14
2022-08-17T02:55:15.048Z,95.54
2022-08-17T02:56:09.132Z,95.43
2022-08-17T02:57:04.214Z,94.49
2022-08-17T02:57:59.201Z,94.71
2022-08-17T02:58:54.290Z,94.60
2022-08-17T02:59:49.410Z,94.49
2022-08-17T03:00:44.592Z,94.60
2022-08-17T03:01:39.641Z,94.49
2022-08-17T03:02:34.596Z,94.49
2022-08-17T03:03:29.605Z,94.87
2022-08-17T03:04:24.676Z,95.58
2022-08-17T03:05:19.779Z,95.79
2022-08-17T03:06:18.143Z,96.29
2022-08-17T03:07:13.360Z,96.63
2022-08-17T03:08:13.024Z,96.96
2022-08-17T03:09:03.569Z,97.76
2022-08-17T03:09:58.700Z,98.45
2022-08-17T03:10:53.808Z,97.99
2022-08-17T03:11:48.888Z,98.68
2022-08-17T03:12:45.037Z,98.63
2022-08-17T03:13:40.262Z,98.51
2022-08-17T03:14:40.743Z,99.21
2022-08-17T03:15:31.687Z,97.70
2022-08-17T03:16:25.877Z,97.64
2022-08-17T03:17:21.078Z,97.13
2022-08-17T03:18:24.076Z,94.46
2022-08-17T03:19:12.345Z,93.61
2022-08-17T03:20:07.259Z,93.09
2022-08-17T03:21:02.340Z,92.47
2022-08-17T03:21:57.714Z,93.09
2022-08-17T03:22:53.866Z,92.99
2022-08-17T03:23:48.704Z,93.09
2022-08-17T03:24:44.887Z,92.78
2022-08-17T03:25:39.054Z,93.19
2022-08-17T03:26:34.973Z,92.78
2022-08-17T03:27:30.111Z,93.09
2022-08-17T03:28:25.466Z,92.78
2022-08-17T03:29:21.554Z,90.17
2022-08-17T03:30:16.810Z,89.69
2022-08-17T03:31:12.695Z,89.40
2022-08-17T03:32:07.943Z,90.17
2022-08-17T03:33:03.208Z,90.17
2022-08-17T03:33:58.887Z,84.08
2022-08-17T03:34:54.121Z,82.34
2022-08-17T03:35:49.953Z,83.91
2022-08-17T03:36:45.037Z,85.64
2022-08-17T03:37:40.435Z,87.52
2022-08-17T03:38:38.953Z,89.40
2022-08-17T03:39:31.344Z,91.36
2022-08-17T03:40:34.626Z,93.19
2022-08-17T03:41:23.817Z,94.35
2022-08-17T03:42:32.343Z,95.11
2022-08-17T03:43:14.870Z,94.39
2022-08-17T03:44:08.955Z,95.47
2022-08-17T03:45:04.084Z,95.14
2022-08-17T03:45:59.890Z,96.07
2022-08-17T03:46:55.148Z,95.08
2022-08-17T03:47:51.069Z,94.67
2022-08-17T03:48:46.190Z,94.67
2022-08-17T03:49:41.327Z,95.65
2022-08-17T03:50:37.157Z,94.60
2022-08-17T03:51:33.444Z,95.41
2022-08-17T03:52:27.677Z,96.29
2022-08-17T03:53:22.666Z,96.24
2022-08-17T03:54:17.786Z,96.57
2022-08-17T03:55:12.824Z,96.57
2022-08-17T03:56:07.819Z,96.46
2022-08-17T03:57:02.876Z,96.07
2022-08-17T03:57:57.906Z,96.46
2022-08-17T03:58:52.950Z,95.52
2022-08-17T03:59:53.686Z,94.92
2022-08-17T04:00:48.842Z,95.03
2022-08-17T04:01:44.319Z,95.30
2022-08-17T04:02:39.930Z,94.33
2022-08-17T04:03:35.198Z,94.98
2022-08-17T04:04:30.358Z,95.76
2022-08-17T04:05:27.086Z,94.17
2022-08-17T04:06:22.133Z,95.76
2022-08-17T04:07:18.003Z,94.46
2022-08-17T04:08:13.130Z,95.11
2022-08-17T04:09:08.312Z,94.46
2022-08-17T04:10:04.191Z,93.40
2022-08-17T04:10:59.391Z,92.57
2022-08-17T04:11:55.228Z,91.26
2022-08-17T04:12:50.633Z,90.37
2022-08-17T04:13:45.928Z,89.78
2022-08-17T04:14:52.568Z,89.40
2022-08-17T04:15:37.189Z,88.26
2022-08-17T04:16:31.311Z,87.99
2022-08-17T04:17:26.522Z,86.79
2022-08-17T04:18:21.543Z,86.26
2022-08-17T04:19:16.646Z,87.52
2022-08-17T04:20:11.770Z,89.98
2022-08-17T04:21:06.786Z,91.06
2022-08-17T04:22:01.838Z,92.78
2022-08-17T04:22:56.936Z,93.51
2022-08-17T04:23:52.469Z,95.00
2022-08-17T04:24:48.052Z,94.17
2022-08-17T04:25:43.332Z,94.76
2022-08-17T04:26:53.231Z,94.60
2022-08-17T04:27:35.528Z,95.21
2022-08-17T04:28:30.277Z,95.54
2022-08-17T04:29:25.551Z,95.32
2022-08-17T04:30:21.494Z,94.67
2022-08-17T04:31:16.639Z,95.32
2022-08-17T04:32:11.897Z,94.17
2022-08-17T04:33:07.778Z,94.17
2022-08-17T04:34:03.022Z,94.71
2022-08-17T04:34:58.414Z,95.36
2022-08-17T04:35:54.698Z,94.82
2022-08-17T04:36:50.573Z,94.82
2022-08-17T04:37:45.318Z,95.08
2022-08-17T04:38:40.457Z,94.82
2022-08-17T04:39:38.093Z,94.55
2022-08-17T04:40:33.360Z,95.76
2022-08-17T04:41:28.676Z,95.43
2022-08-17T04:42:23.958Z,95.54
2022-08-17T04:43:20.325Z,94.89
2022-08-17T04:44:15.596Z,95.21
2022-08-17T04:45:11.917Z,95.11
2022-08-17T04:46:05.906Z,93.61
2022-08-17T04:47:00.907Z,90.86
2022-08-17T04:47:56.171Z,90.07
2022-08-17T04:48:51.213Z,90.66
2022-08-17T04:49:46.246Z,90.66
2022-08-17T04:50:41.335Z,90.96
2022-08-17T04:51:36.478Z,91.26
2022-08-17T04:52:43.206Z,91.36
2022-08-17T04:53:28.753Z,91.36
2022-08-17T04:54:23.088Z,91.16
2022-08-17T04:55:18.435Z,91.56
2022-08-17T04:56:19.000Z,91.96
2022-08-17T04:57:12.628Z,91.46
2022-08-17T04:58:07.813Z,92.37
2022-08-17T04:59:03.186Z,91.76
2022-08-17T04:59:58.256Z,92.06
2022-08-17T05:00:53.344Z,91.56
2022-08-17T05:01:48.314Z,92.16
2022-08-17T05:02:50.109Z,91.96
2022-08-17T05:03:39.459Z,92.68
2022-08-17T05:04:35.340Z,93.09
2022-08-17T05:05:29.601Z,92.57
2022-08-17T05:06:24.937Z,89.98
2022-08-17T05:07:23.968Z,88.73
2022-08-17T05:08:16.798Z,88.64
2022-08-17T05:09:11.045Z,89.02
2022-08-17T05:10:06.356Z,89.02
2022-08-17T05:11:01.681Z,90.17
2022-08-17T05:11:57.024Z,90.76
2022-08-17T05:12:52.403Z,90.76
2022-08-17T05:13:47.775Z,89.02
2022-08-17T05:14:43.079Z,88.92
2022-08-17T05:15:38.393Z,89.21
2022-08-17T05:16:34.755Z,89.21
2022-08-17T05:17:29.173Z,88.64
2022-08-17T05:18:24.806Z,88.73
2022-08-17T05:19:19.854Z,89.02
2022-08-17T05:20:15.136Z,88.92
2022-08-17T05:21:10.487Z,89.78
2022-08-17T05:22:05.847Z,89.30
2022-08-17T05:23:01.227Z,89.02
2022-08-17T05:23:56.644Z,88.64
2022-08-17T05:24:55.370Z,88.54
2022-08-17T05:25:47.823Z,87.71
2022-08-17T05:26:42.833Z,87.61
2022-08-17T05:27:38.309Z,87.16
2022-08-17T05:28:33.750Z,87.89
2022-08-17T05:29:35.517Z,88.54
2022-08-17T05:30:25.541Z,87.80
2022-08-17T05:31:24.037Z,87.34
2022-08-17T05:32:38.357Z,86.98
2022-08-17T05:33:15.675Z,87.07
2022-08-17T05:34:10.123Z,87.89
2022-08-17T05:35:05.608Z,88.26
2022-08-17T05:36:00.986Z,87.61
2022-08-17T05:36:56.380Z,87.34
2022-08-17T05:37:51.799Z,87.16
2022-08-17T05:38:47.313Z,81.62
2022-08-17T05:39:42.626Z,81.22
2022-08-17T05:40:38.014Z,82.42
2022-08-17T05:41:33.391Z,83.33
2022-08-17T05:42:28.784Z,83.33
2022-08-17T05:43:24.126Z,81.70
2022-08-17T05:44:20.071Z,81.70
2022-08-17T05:45:15.439Z,82.42
2022-08-17T05:46:10.816Z,81.22
2022-08-17T05:47:06.199Z,81.14
2022-08-17T05:48:01.604Z,81.46
2022-08-17T05:48:57.003Z,82.50
2022-08-17T05:49:53.894Z,82.83
2022-08-17T05:50:47.819Z,84.68
2022-08-17T05:51:43.124Z,85.55
2022-08-17T05:52:38.521Z,86.26
2022-08-17T05:53:35.744Z,86.43
2022-08-17T05:54:30.684Z,87.07
2022-08-17T05:55:25.092Z,87.61
2022-08-17T05:56:29.653Z,86.79
2022-08-17T05:57:16.718Z,87.52
2022-08-17T05:58:10.804Z,88.08
2022-08-17T05:59:05.775Z,89.40
2022-08-17T06:00:00.886Z,90.76
2022-08-17T06:00:55.912Z,91.46
2022-08-17T06:01:50.854Z,93.51
2022-08-17T06:02:47.964Z,95.11
2022-08-17T06:03:42.172Z,94.17
2022-08-17T06:04:36.309Z,94.89
2022-08-17T06:05:31.309Z,91.16
2022-08-17T06:06:31.150Z,86.61
2022-08-17T06:07:22.500Z,82.34
2022-08-17T06:08:16.564Z,79.29
2022-08-17T06:09:11.535Z,78.10
2022-08-17T06:10:06.527Z,76.74
2022-08-17T06:11:01.637Z,74.81
2022-08-17T06:11:58.798Z,73.75
2022-08-17T06:12:51.860Z,73.23
2022-08-17T06:13:46.949Z,72.66
2022-08-17T06:14:42.310Z,71.11
2022-08-17T06:15:37.705Z,69.11
2022-08-17T06:16:34.772Z,67.93
2022-08-17T06:17:28.603Z,67.38
2022-08-17T06:18:23.866Z,63.19
2022-08-17T06:19:19.254Z,63.05
2022-08-17T06:20:14.691Z,61.56
2022-08-17T06:21:10.048Z,60.93
2022-08-17T06:22:05.422Z,60.06
2022-08-17T06:23:00.794Z,55.91
2022-08-17T06:23:56.174Z,56.40
2022-08-17T06:24:51.518Z,59.80
2022-08-17T06:25:47.464Z,60.80
2022-08-17T06:26:43.512Z,60.67
2022-08-17T06:27:38.376Z,62.02
2022-08-17T06:28:33.775Z,62.02
2022-08-17T06:29:29.161Z,60.19
2022-08-17T06:30:24.676Z,62.02
2022-08-17T06:31:19.929Z,63.68
2022-08-17T06:32:15.283Z,65.27
2022-08-17T06:33:11.223Z,68.65
2022-08-17T06:34:06.592Z,70.16
2022-08-17T06:35:02.086Z,72.16
2022-08-17T06:35:57.357Z,73.17
2022-08-17T06:36:52.736Z,73.82
2022-08-17T06:37:48.109Z,74.94
2022-08-17T06:38:43.461Z,75.76
2022-08-17T06:39:38.840Z,76.67
2022-08-17T06:40:34.221Z,78.32
2022-08-17T06:41:29.603Z,79.29
2022-08-17T06:43:05.025Z,78.91
2022-08-17T06:43:21.392Z,79.14
2022-08-17T06:44:43.336Z,79.82
2022-08-17T06:45:12.350Z,78.32
2022-08-17T06:46:10.731Z,78.76
2022-08-17T06:47:06.266Z,77.52
2022-08-17T06:48:01.508Z,77.88
2022-08-17T06:48:56.920Z,79.67
2022-08-17T06:49:55.381Z,81.54
2022-08-17T06:50:47.754Z,86.08
2022-08-17T06:51:43.192Z,89.11
2022-08-17T06:52:55.561Z,90.76
2022-08-17T06:53:35.378Z,92.57
2022-08-17T06:54:29.781Z,92.57
2022-08-17T06:55:25.136Z,93.51
2022-08-17T06:56:20.568Z,90.86
2022-08-17T06:57:15.907Z,94.46
2022-08-17T06:58:15.907Z,97.08
2022-08-17T06:59:07.699Z,100.95
2022-08-17T07:00:02.209Z,101.57
2022-08-17T07:00:58.833Z,101.20
2022-08-17T07:01:53.328Z,100.35
2022-08-17T07:02:52.554Z,103.01
2022-08-17T07:03:44.305Z,128.66
2022-08-17T07:04:38.388Z,148.33
2022-08-17T07:05:33.388Z,163.60
2022-08-17T07:06:30.096Z,173.29
2022-08-17T07:07:25.501Z,172.04
2022-08-17T07:08:21.108Z,161.54
2022-08-17T07:09:16.614Z,145.74
2022-08-17T07:10:12.084Z,141.42
2022-08-17T07:11:07.681Z,157.73
2022-08-17T07:12:03.073Z,169.07
2022-08-17T07:12:58.544Z,189.04
2022-08-17T07:13:54.296Z,203.21
2022-08-17T07:14:49.705Z,200.85
2022-08-17T07:15:45.140Z,207.45
2022-08-17T07:16:40.650Z,210.65
2022-08-17T07:17:46.460Z,209.44
2022-08-17T07:18:32.613Z,221.60
2022-08-17T07:19:26.602Z,205.76
2022-08-17T07:20:21.651Z,190.80
2022-08-17T07:21:18.484Z,175.47
2022-08-17T07:22:12.030Z,171.68
2022-08-17T07:23:06.874Z,180.02
2022-08-17T07:24:02.015Z,215.77
2022-08-17T07:24:56.981Z,245.11
2022-08-17T07:25:52.067Z,228.87
2022-08-17T07:26:47.219Z,228.55
2022-08-17T07:27:42.080Z,217.20
2022-08-17T07:28:37.086Z,209.30
2022-08-17T07:29:33.968Z,221.30
2022-08-17T07:30:29.355Z,255.41
2022-08-17T07:31:24.887Z,281.01
2022-08-17T07:32:20.804Z,285.16
2022-08-17T07:33:15.953Z,281.01
2022-08-17T07:34:11.339Z,279.33
2022-08-17T07:35:06.915Z,286.90
2022-08-17T07:36:02.326Z,294.63
2022-08-17T07:36:57.876Z,289.43
2022-08-17T07:37:53.324Z,306.46
2022-08-17T07:38:48.791Z,328.23
2022-08-17T07:39:59.751Z,354.09
2022-08-17T07:40:40.917Z,342.63
2022-08-17T07:41:57.663Z,343.34
2022-08-17T07:42:31.505Z,361.50
2022-08-17T07:43:25.565Z,379.31
2022-08-17T07:44:20.640Z,401.22
2022-08-17T07:45:15.756Z,408.85
2022-08-17T07:46:10.777Z,424.73
2022-08-17T07:47:05.773Z,381.05
2022-08-17T07:48:00.808Z,392.02
2022-08-17T07:48:55.770Z,419.92
2022-08-17T07:49:51.010Z,431.33
2022-08-17T07:50:49.555Z,428.56
2022-08-17T07:51:41.033Z,436.98
2022-08-17T07:52:50.416Z,435.27
2022-08-17T07:53:32.209Z,409.10
2022-08-17T07:54:26.460Z,359.52
2022-08-17T07:55:21.925Z,351.81
2022-08-17T07:56:17.363Z,328.23
2022-08-17T07:57:13.020Z,337.00
2022-08-17T07:58:08.585Z,341.20
2022-08-17T07:59:03.745Z,338.73
2022-08-17T07:59:59.300Z,332.55
2022-08-17T08:00:54.824Z,334.59
2022-08-17T08:01:49.973Z,335.96
2022-08-17T08:02:45.939Z,338.04
2022-08-17T08:03:40.064Z,334.59
2022-08-17T08:05:00.482Z,343.70
2022-08-17T08:05:49.998Z,345.51
2022-08-17T08:06:26.239Z,327.58
2022-08-17T08:07:20.268Z,330.55
2022-08-17T08:08:15.376Z,341.56
2022-08-17T08:09:10.477Z,359.91
2022-08-17T08:10:05.435Z,387.47
2022-08-17T08:11:00.913Z,385.68
2022-08-17T08:11:55.902Z,379.96
2022-08-17T08:12:52.757Z,377.30
2022-08-17T08:13:46.124Z,381.05
2022-08-17T08:14:41.098Z,381.70
2022-08-17T08:15:36.227Z,398.58
2022-08-17T08:16:31.239Z,423.92
2022-08-17T08:17:26.392Z,443.37
2022-08-17T08:18:53.673Z,446.34
2022-08-17T08:19:21.090Z,454.25
2022-08-17T08:20:42.453Z,447.24
2022-08-17T08:21:09.760Z,436.12
2022-08-17T08:22:04.089Z,410.11
2022-08-17T08:22:59.628Z,428.01
2022-08-17T08:23:55.486Z,445.74
2022-08-17T08:24:50.737Z,454.87
2022-08-17T08:25:48.786Z,408.85
2022-08-17T08:26:42.795Z,438.13
2022-08-17T08:27:37.395Z,469.27
2022-08-17T08:28:32.953Z,476.31
2022-08-17T08:29:28.525Z,457.05
2022-08-17T08:30:24.097Z,489.24
2022-08-17T08:31:19.603Z,508.26
2022-08-17T08:32:15.030Z,492.49
2022-08-17T08:33:10.566Z,513.74
2022-08-17T08:34:06.073Z,516.92
2022-08-17T08:35:03.595Z,516.92
2022-08-17T08:35:57.137Z,570.92
2022-08-17T08:36:59.275Z,598.59
2022-08-17T08:37:50.679Z,604.02
2022-08-17T08:38:45.032Z,608.42
2022-08-17T08:39:40.585Z,611.21
2022-08-17T08:40:36.262Z,615.16
2022-08-17T08:41:31.684Z,594.86
2022-08-17T08:42:27.193Z,570.43
2022-08-17T08:43:22.772Z,495.05
2022-08-17T08:44:18.282Z,501.38
2022-08-17T08:45:13.802Z,457.36
2022-08-17T08:46:09.229Z,493.22
2022-08-17T08:47:08.403Z,547.93
2022-08-17T08:48:05.470Z,553.85
2022-08-17T08:49:02.655Z,556.16
2022-08-17T08:50:04.858Z,560.36
2022-08-17T08:50:51.133Z,553.39
2022-08-17T08:51:45.698Z,499.13
2022-08-17T08:52:41.194Z,473.60
2022-08-17T08:53:36.587Z,501.38
2022-08-17T08:54:32.186Z,505.56
2022-08-17T08:55:27.552Z,499.88
2022-08-17T08:56:23.164Z,503.27
2022-08-17T08:57:32.887Z,502.51
2022-08-17T08:58:31.384Z,484.97
2022-08-17T08:59:10.640Z,465.02
2022-08-17T09:00:05.219Z,436.70
2022-08-17T09:01:00.355Z,420.45
2022-08-17T09:01:55.392Z,410.11
2022-08-17T09:02:50.273Z,408.60
2022-08-17T09:03:52.664Z,413.16
2022-08-17T09:05:10.586Z,424.73
2022-08-17T09:05:36.680Z,389.51
2022-08-17T09:06:39.054Z,395.98
2022-08-17T09:07:26.996Z,388.82
2022-08-17T09:08:20.903Z,395.98
2022-08-17T09:09:15.972Z,395.28
2022-08-17T09:10:11.310Z,412.90
2022-08-17T09:11:06.557Z,398.11
2022-08-17T09:12:03.864Z,382.80
2022-08-17T09:12:56.723Z,373.86
2022-08-17T09:13:54.329Z,355.24
2022-08-17T09:14:47.466Z,365.12
2022-08-17T09:15:41.911Z,370.06
2022-08-17T09:16:37.022Z,374.28
2022-08-17T09:17:32.548Z,398.11
2022-08-17T09:19:02.816Z,422.85
2022-08-17T09:19:24.332Z,438.42
2022-08-17T09:20:27.623Z,430.49
2022-08-17T09:21:15.085Z,429.94
2022-08-17T09:22:09.486Z,414.70
2022-08-17T09:23:04.983Z,406.61
2022-08-17T09:24:00.470Z,403.41
2022-08-17T09:24:55.981Z,415.73
2022-08-17T09:25:51.454Z,405.12
2022-08-17T09:26:46.914Z,384.56
2022-08-17T09:27:42.387Z,364.71
2022-08-17T09:28:37.884Z,354.85
2022-08-17T09:29:33.520Z,348.08
2022-08-17T09:30:28.914Z,381.48
2022-08-17T09:31:24.387Z,400.02
2022-08-17T09:32:19.996Z,397.87
2022-08-17T09:33:19.235Z,410.11
2022-08-17T09:34:14.612Z,397.40
2022-08-17T09:35:10.047Z,376.00
2022-08-17T09:36:05.538Z,386.12
2022-08-17T09:37:00.997Z,402.19
2022-08-17T09:37:56.456Z,403.41
2022-08-17T09:38:52.034Z,413.92
2022-08-17T09:39:47.554Z,404.88
2022-08-17T09:40:43.012Z,385.45
2022-08-17T09:41:38.514Z,372.16
2022-08-17T09:42:35.127Z,363.50
2022-08-17T09:43:29.420Z,364.71
2022-08-17T09:44:24.911Z,370.48
2022-08-17T09:45:20.362Z,378.17
2022-08-17T09:46:15.879Z,377.30
2022-08-17T09:47:10.952Z,366.75
2022-08-17T09:48:06.052Z,352.95
2022-08-17T09:49:01.067Z,341.91
2022-08-17T09:49:56.199Z,322.11
2022-08-17T09:51:05.014Z,312.60
2022-08-17T09:51:47.191Z,333.57
2022-08-17T09:52:41.219Z,363.10
2022-08-17T09:53:36.222Z,358.34
2022-08-17T09:54:39.929Z,343.34
2022-08-17T09:55:27.280Z,329.22
2022-08-17T09:56:21.337Z,316.52
2022-08-17T09:57:29.734Z,285.65
2022-08-17T09:58:12.540Z,306.46
2022-08-17T09:59:07.019Z,322.74
2022-08-17T10:00:02.555Z,352.95
2022-08-17T10:00:58.262Z,344.42
2022-08-17T10:01:53.657Z,333.23
2022-08-17T10:02:49.062Z,339.44
2022-08-17T10:03:44.617Z,373.43
2022-08-17T10:04:39.879Z,300.29
2022-08-17T10:05:34.988Z,280.52
2022-08-17T10:06:30.009Z,315.91
2022-08-17T10:07:25.111Z,332.89
2022-08-17T10:08:21.709Z,288.42
2022-08-17T10:09:15.247Z,284.17
2022-08-17T10:10:14.065Z,304.76
2022-08-17T10:11:05.216Z,324.98
2022-08-17T10:12:01.150Z,314.69
2022-08-17T10:12:56.361Z,324.66
2022-08-17T10:13:52.968Z,283.92
2022-08-17T10:14:46.466Z,238.52
2022-08-17T10:15:43.267Z,212.15
2022-08-17T10:16:37.661Z,227.12
2022-08-17T10:17:33.191Z,223.72
2022-08-17T10:18:31.786Z,238.00
2022-08-17T10:19:24.328Z,262.99
2022-08-17T10:20:19.862Z,273.28
2022-08-17T10:21:15.404Z,273.74
2022-08-17T10:22:32.752Z,258.84
2022-08-17T10:23:07.341Z,249.21
2022-08-17T10:24:01.707Z,239.21
2022-08-17T10:25:01.985Z,229.83
2022-08-17T10:25:55.411Z,213.39
2022-08-17T10:26:55.921Z,227.28
2022-08-17T10:27:44.527Z,258.02
2022-08-17T10:28:38.523Z,275.11
2022-08-17T10:29:46.163Z,290.97
2022-08-17T10:30:29.636Z,321.79
2022-08-17T10:31:34.823Z,305.61
2022-08-17T10:32:19.721Z,259.86
2022-08-17T10:33:13.882Z,218.65
2022-08-17T10:34:08.955Z,221.60
2022-08-17T10:35:04.035Z,241.15
2022-08-17T10:35:59.132Z,241.15
2022-08-17T10:36:54.377Z,232.60
2022-08-17T10:37:49.999Z,213.11
2022-08-17T10:38:45.404Z,193.16
2022-08-17T10:39:52.169Z,190.14
2022-08-17T10:40:37.008Z,190.14
2022-08-17T10:41:31.238Z,201.84
2022-08-17T10:42:32.360Z,216.34
2022-08-17T10:43:22.349Z,213.25
2022-08-17T10:44:37.972Z,207.32
2022-08-17T10:45:12.573Z,222.35
2022-08-17T10:46:21.320Z,232.27
2022-08-17T10:47:02.811Z,246.03
2022-08-17T10:48:00.105Z,257.01
2022-08-17T10:48:53.692Z,269.02
2022-08-17T10:49:48.274Z,285.90
2022-08-17T10:50:43.551Z,321.79
2022-08-17T10:51:39.071Z,373.43
2022-08-17T10:52:34.579Z,362.30
2022-08-17T10:53:30.169Z,335.27
2022-08-17T10:54:25.562Z,286.15
2022-08-17T10:55:20.682Z,282.46
2022-08-17T10:56:15.681Z,253.83
2022-08-17T10:57:10.791Z,295.43
2022-08-17T10:58:05.895Z,335.96
2022-08-17T10:59:00.921Z,359.52
2022-08-17T10:59:56.033Z,393.18
2022-08-17T11:00:51.052Z,363.91
2022-08-17T11:01:46.076Z,342.27
2022-08-17T11:02:41.194Z,387.24
2022-08-17T11:03:36.239Z,390.88
2022-08-17T11:04:31.904Z,332.22
2022-08-17T11:05:26.896Z,275.58
2022-08-17T11:06:21.919Z,223.57
2022-08-17T11:07:16.896Z,212.01
2022-08-17T11:08:12.686Z,249.21
2022-08-17T11:09:08.237Z,300.84
2022-08-17T11:10:03.770Z,358.73
2022-08-17T11:10:59.265Z,438.99
2022-08-17T11:11:54.814Z,505.94
2022-08-17T11:12:50.538Z,544.35
2022-08-17T11:13:45.824Z,475.97
2022-08-17T11:14:41.508Z,452.09
2022-08-17T11:15:37.033Z,453.63
2022-08-17T11:16:32.559Z,432.45
2022-08-17T11:17:27.959Z,419.66
2022-08-17T11:18:23.458Z,446.64
2022-08-17T11:19:19.107Z,468.61
2022-08-17T11:20:14.388Z,488.52
2022-08-17T11:21:09.489Z,471.26
2022-08-17T11:22:04.639Z,475.63
2022-08-17T11:22:59.729Z,437.55
2022-08-17T11:23:54.848Z,455.80
2022-08-17T11:24:49.977Z,481.12
2022-08-17T11:25:44.978Z,512.16
2022-08-17T11:26:40.102Z,508.26
2022-08-17T11:27:36.995Z,461.80
2022-08-17T11:28:32.105Z,454.87
2022-08-17T11:29:27.235Z,462.12
2022-08-17T11:30:22.316Z,476.99
2022-08-17T11:31:17.354Z,457.36
2022-08-17T11:32:12.364Z,443.67
2022-08-17T11:33:07.373Z,416.51
2022-08-17T11:34:02.426Z,402.68
2022-08-17T11:34:59.062Z,407.60
2022-08-17T11:35:54.450Z,415.47
2022-08-17T11:36:49.836Z,434.70
2022-08-17T11:37:45.254Z,447.24
2022-08-17T11:38:42.119Z,496.52
2022-08-17T11:39:37.619Z,465.34
2022-08-17T11:40:33.014Z,487.10
2022-08-17T11:41:28.519Z,558.02
2022-08-17T11:42:24.051Z,555.23